Time;durP1;ratioP1;P1;durP2;ratioP2;P2;SDS_P1;SDS_P2;PMS_P1;PMS_P2;Temp;Humidity;BMP_temperature;BMP_pressure;BME280_temperature;BME280_humidity;BME280_pressure;Samples;Min_cycle;Max_cycle;Signal;HPM_P1;HPM_P2
2023/04/21 00:00:51;;;;;;;36.72;23.00;;;9.00;99.90;;;;;;6097044;23;20032;-81
2023/04/21 00:03:19;;;;;;;28.60;22.17;;;8.90;99.90;;;;;;6121039;23;20081;-81
2023/04/21 00:05:45;;;;;;;32.17;21.92;;;8.90;99.90;;;;;;6123199;23;20014;-81
2023/04/21 00:08:11;;;;;;;29.42;21.20;;;8.90;99.90;;;;;;6121608;23;20314;-81
2023/04/21 00:10:37;;;;;;;29.63;22.42;;;9.00;99.90;;;;;;6121612;23;20101;-81
2023/04/21 00:13:02;;;;;;;29.52;20.70;;;8.90;99.90;;;;;;6123298;23;20022;-81
2023/04/21 00:15:28;;;;;;;28.75;20.60;;;8.90;99.90;;;;;;6121370;23;20045;-81
2023/04/21 00:17:54;;;;;;;26.38;21.70;;;8.90;99.90;;;;;;6120814;23;20473;-81
2023/04/21 00:20:20;;;;;;;27.33;20.52;;;8.80;99.90;;;;;;6121542;23;20014;-81
2023/04/21 00:22:46;;;;;;;30.33;20.77;;;9.10;99.90;;;;;;6097046;23;20014;-81
2023/04/21 00:25:11;;;;;;;27.50;20.55;;;8.80;99.90;;;;;;6121470;23;20322;-80
2023/04/21 00:27:37;;;;;;;27.15;19.83;;;8.80;99.90;;;;;;6096816;23;20446;-81
2023/04/21 00:30:03;;;;;;;28.08;20.60;;;8.80;99.90;;;;;;6123251;23;20021;-81
2023/04/21 00:32:29;;;;;;;28.73;19.88;;;8.70;99.90;;;;;;6122166;23;20014;-80
2023/04/21 00:34:55;;;;;;;26.15;20.58;;;8.70;99.90;;;;;;6123200;23;20014;-81
2023/04/21 00:37:21;;;;;;;27.17;20.17;;;8.80;99.90;;;;;;6124949;23;20021;-81
2023/04/21 00:39:46;;;;;;;25.48;20.40;;;8.70;99.90;;;;;;6125179;23;20421;-81
2023/04/21 00:42:15;;;;;;;21.50;18.83;;;8.60;99.90;;;;;;6124455;23;20096;-81
2023/04/21 00:44:40;;;;;;;31.63;21.00;;;8.60;99.90;;;;;;6123097;23;20014;-81
2023/04/21 00:47:06;;;;;;;26.90;21.23;;;8.50;99.90;;;;;;6098107;23;20030;-80
2023/04/21 00:49:32;;;;;;;25.58;20.15;;;8.50;99.90;;;;;;6123282;23;20342;-81
2023/04/21 00:51:57;;;;;;;26.45;19.77;;;8.50;99.90;;;;;;6123205;23;20452;-81
2023/04/21 00:54:24;;;;;;;27.48;20.38;;;8.50;99.90;;;;;;6125277;23;20013;-81
2023/04/21 00:56:50;;;;;;;30.08;20.70;;;8.50;99.90;;;;;;6122791;23;20156;-81
2023/04/21 00:59:16;;;;;;;28.85;20.23;;;8.40;99.90;;;;;;6125072;23;20043;-81
2023/04/21 01:01:42;;;;;;;25.05;19.73;;;8.40;99.90;;;;;;6123938;23;20378;-81
2023/04/21 01:04:09;;;;;;;24.73;19.58;;;8.40;99.90;;;;;;6123070;23;20073;-80
2023/04/21 01:06:35;;;;;;;26.10;20.38;;;8.40;99.90;;;;;;6098610;23;20009;-81
2023/04/21 01:09:00;;;;;;;26.80;19.17;;;8.40;99.90;;;;;;6123051;23;20321;-81
2023/04/21 01:11:26;;;;;;;28.67;20.67;;;8.40;99.90;;;;;;6124720;23;20018;-81
2023/04/21 01:13:53;;;;;;;26.73;19.85;;;8.30;99.90;;;;;;6123368;23;20021;-81
2023/04/21 01:16:20;;;;;;;26.27;20.80;;;8.30;99.90;;;;;;6124317;23;20077;-81
2023/04/21 01:18:45;;;;;;;27.50;20.65;;;8.30;99.90;;;;;;6124833;23;20021;-81
2023/04/21 01:21:12;;;;;;;27.40;21.52;;;8.30;99.90;;;;;;6124851;23;20014;-80
2023/04/21 01:23:39;;;;;;;26.23;20.65;;;8.30;99.90;;;;;;6123220;23;20006;-81
2023/04/21 01:26:05;;;;;;;25.48;20.60;;;8.30;99.90;;;;;;6122817;23;20523;-81
2023/04/21 01:28:31;;;;;;;27.52;19.58;;;8.50;99.90;;;;;;6124660;23;20014;-81
2023/04/21 01:30:57;;;;;;;31.75;20.02;;;8.20;99.90;;;;;;6122203;23;20449;-80
2023/04/21 01:33:22;;;;;;;27.30;18.85;;;8.20;99.90;;;;;;6122721;23;20018;-81
2023/04/21 01:35:48;;;;;;;24.92;20.00;;;8.20;99.90;;;;;;6098438;23;20084;-80
2023/04/21 01:38:17;;;;;;;27.45;19.80;;;8.20;99.90;;;;;;6124597;23;20014;-81
2023/04/21 01:40:45;;;;;;;28.08;20.52;;;8.20;99.90;;;;;;6124681;23;20014;-81
2023/04/21 01:43:11;;;;;;;29.20;20.50;;;8.20;99.90;;;;;;6124374;23;20017;-81
2023/04/21 01:45:37;;;;;;;23.55;17.77;;;8.20;99.90;;;;;;6124039;23;20374;-80
2023/04/21 01:48:03;;;;;;;27.40;20.25;;;8.20;99.90;;;;;;6122620;23;20048;-81
2023/04/21 01:50:28;;;;;;;24.38;19.02;;;8.20;99.90;;;;;;6124538;23;20041;-81
2023/04/21 01:52:54;;;;;;;25.67;19.50;;;8.20;99.90;;;;;;6122891;23;20037;-81
2023/04/21 01:55:20;;;;;;;24.80;18.73;;;8.20;99.90;;;;;;6121997;23;20029;-81
2023/04/21 01:57:45;;;;;;;27.08;19.75;;;8.10;99.90;;;;;;6120991;23;20394;-81
2023/04/21 02:00:11;;;;;;;24.85;19.67;;;8.10;99.90;;;;;;6122535;23;20478;-81
2023/04/21 02:02:37;;;;;;;29.02;20.90;;;8.10;99.90;;;;;;6122947;23;20045;-81
2023/04/21 02:05:03;;;;;;;25.75;19.83;;;8.10;99.90;;;;;;6121193;23;20017;-81
2023/04/21 02:07:28;;;;;;;28.77;20.48;;;8.10;99.90;;;;;;6120930;23;20057;-81
2023/04/21 02:09:54;;;;;;;27.85;20.70;;;8.00;99.90;;;;;;6121286;23;20453;-81
2023/04/21 02:12:20;;;;;;;27.80;19.85;;;8.00;99.90;;;;;;6123029;23;20021;-79
2023/04/21 02:14:47;;;;;;;27.67;20.30;;;8.00;99.90;;;;;;6096460;23;20025;-80
2023/04/21 02:17:13;;;;;;;27.58;20.52;;;8.00;99.90;;;;;;6123589;23;20108;-81
2023/04/21 02:19:39;;;;;;;28.67;20.77;;;7.90;99.90;;;;;;6123062;23;20018;-82
2023/04/21 02:22:07;;;;;;;25.75;20.40;;;7.90;99.90;;;;;;6120943;23;20022;-81
2023/04/21 02:24:35;;;;;;;25.73;20.15;;;7.90;99.90;;;;;;6121266;23;20104;-81
2023/04/21 02:27:01;;;;;;;31.70;21.48;;;7.90;99.90;;;;;;6123057;23;20014;-80
2023/04/21 02:29:27;;;;;;;26.27;20.92;;;7.90;99.90;;;;;;6122468;23;20033;-80
2023/04/21 02:31:52;;;;;;;28.60;21.48;;;7.90;99.90;;;;;;6121045;23;20014;-81
2023/04/21 02:34:19;;;;;;;26.33;21.10;;;7.90;99.90;;;;;;6121463;23;20076;-81
2023/04/21 02:36:45;;;;;;;31.33;21.15;;;7.90;99.90;;;;;;6122904;23;20084;-81
2023/04/21 02:39:10;;;;;;;28.52;21.73;;;8.00;99.90;;;;;;6123095;23;20048;-81
2023/04/21 02:41:36;;;;;;;27.23;20.85;;;7.90;99.90;;;;;;6096629;23;20021;-81
2023/04/21 02:44:02;;;;;;;30.88;21.48;;;7.90;99.90;;;;;;6121997;23;20333;-81
2023/04/21 02:46:27;;;;;;;32.22;22.52;;;7.90;99.90;;;;;;6121161;23;20014;-81
2023/04/21 02:48:53;;;;;;;31.17;22.17;;;7.90;99.90;;;;;;6123085;23;20006;-81
2023/04/21 02:51:18;;;;;;;30.88;22.73;;;7.90;99.90;;;;;;6121157;23;20021;-81
2023/04/21 02:53:44;;;;;;;26.58;22.08;;;7.80;99.90;;;;;;6122602;23;20049;-81
2023/04/21 02:56:10;;;;;;;29.42;22.67;;;7.80;99.90;;;;;;6076023;23;1074935;-81
2023/04/21 02:58:36;;;;;;;29.58;21.88;;;7.80;99.90;;;;;;6123147;23;20025;-81
2023/04/21 03:01:03;;;;;;;33.28;23.35;;;7.70;99.90;;;;;;6121880;23;20014;-81
2023/04/21 03:03:29;;;;;;;34.47;22.90;;;7.70;99.90;;;;;;6124128;23;20018;-81
2023/04/21 03:05:57;;;;;;;32.60;23.10;;;7.70;99.90;;;;;;6123780;23;20346;-80
2023/04/21 03:08:22;;;;;;;33.85;22.35;;;7.70;99.90;;;;;;6121961;23;20010;-81
2023/04/21 03:10:48;;;;;;;33.85;22.40;;;7.80;99.90;;;;;;6123738;23;20041;-80
2023/04/21 03:13:13;;;;;;;31.75;22.73;;;7.70;99.90;;;;;;6121221;23;20014;-81
2023/04/21 03:15:39;;;;;;;29.98;21.35;;;7.70;99.90;;;;;;6121787;23;20081;-80
2023/04/21 03:18:05;;;;;;;33.35;22.48;;;8.00;99.90;;;;;;6123780;23;20338;-81
2023/04/21 03:20:31;;;;;;;28.27;23.15;;;7.60;99.90;;;;;;6123438;23;20013;-81
2023/04/21 03:22:56;;;;;;;27.55;22.30;;;7.90;99.90;;;;;;6123693;23;20014;-81
2023/04/21 03:25:22;;;;;;;34.40;22.77;;;7.70;99.90;;;;;;6121653;23;20025;-81
2023/04/21 03:27:48;;;;;;;29.48;22.17;;;7.60;99.90;;;;;;6121162;23;20398;-80
2023/04/21 03:30:14;;;;;;;33.40;22.67;;;7.60;99.90;;;;;;6121709;23;20307;-80
2023/04/21 03:32:39;;;;;;;31.38;22.77;;;7.70;99.90;;;;;;6121653;23;20018;-80
2023/04/21 03:35:05;;;;;;;28.33;21.75;;;7.90;99.90;;;;;;6121987;23;20013;-81
2023/04/21 03:37:31;;;;;;;28.55;21.77;;;7.60;99.90;;;;;;6097303;23;20018;-81
2023/04/21 03:39:56;;;;;;;29.38;22.42;;;7.60;99.90;;;;;;6123664;23;20085;-80
2023/04/21 03:42:22;;;;;;;29.10;22.23;;;7.50;99.90;;;;;;6120932;23;20479;-81
2023/04/21 03:44:48;;;;;;;29.88;21.75;;;7.50;99.90;;;;;;6123600;23;20052;-81
2023/04/21 03:47:15;;;;;;;28.15;21.83;;;7.50;99.90;;;;;;6121721;23;20504;-80
2023/04/21 03:49:41;;;;;;;31.55;21.60;;;7.50;99.90;;;;;;6121519;23;20018;-80
2023/04/21 03:52:06;;;;;;;28.58;20.13;;;8.00;99.90;;;;;;6123576;23;20141;-80
2023/04/21 03:54:32;;;;;;;28.88;20.65;;;7.50;99.90;;;;;;6121709;23;20289;-82
2023/04/21 03:56:57;;;;;;;28.13;20.40;;;8.00;99.90;;;;;;6120902;23;20022;-80
2023/04/21 03:59:23;;;;;;;25.55;20.23;;;7.90;99.90;;;;;;6121612;23;20041;-80
2023/04/21 04:01:49;;;;;;;26.95;20.52;;;7.60;99.90;;;;;;6096825;23;20061;-82
2023/04/21 04:04:15;;;;;;;29.75;20.95;;;7.60;99.90;;;;;;6121451;23;20014;-80
2023/04/21 04:06:40;;;;;;;26.55;20.02;;;7.60;99.90;;;;;;6123209;23;20442;-79
2023/04/21 04:09:07;;;;;;;25.73;20.48;;;7.60;99.90;;;;;;6125134;23;20304;-80
2023/04/21 04:11:33;;;;;;;26.23;21.05;;;7.80;99.90;;;;;;6122913;23;20093;-81
2023/04/21 04:13:59;;;;;;;24.20;19.45;;;7.60;99.90;;;;;;6123928;23;20042;-80
2023/04/21 04:16:24;;;;;;;25.70;19.45;;;7.70;99.90;;;;;;6123427;23;20018;-80
2023/04/21 04:18:50;;;;;;;26.40;19.38;;;7.70;99.90;;;;;;6125613;23;20112;-80
2023/04/21 04:21:15;;;;;;;22.75;19.17;;;7.70;99.90;;;;;;6123194;23;20018;-80
2023/04/21 04:23:41;;;;;;;27.00;19.33;;;7.60;99.90;;;;;;6125295;23;20068;-79
2023/04/21 04:26:08;;;;;;;23.33;19.20;;;7.70;99.90;;;;;;6098221;23;20442;-80
2023/04/21 04:28:34;;;;;;;29.13;19.40;;;7.60;99.90;;;;;;6125084;23;20014;-81
2023/04/21 04:31:00;;;;;;;25.58;19.00;;;7.60;99.90;;;;;;6125034;23;20014;-80
2023/04/21 04:33:26;;;;;;;28.55;20.23;;;7.60;99.90;;;;;;6125261;23;20014;-80
2023/04/21 04:35:51;;;;;;;27.38;20.02;;;7.60;99.90;;;;;;6122958;23;20068;-80
2023/04/21 04:38:17;;;;;;;27.35;19.98;;;7.60;99.90;;;;;;6099187;23;20018;-80
2023/04/21 04:40:43;;;;;;;24.38;19.48;;;7.60;99.90;;;;;;6122588;23;20353;-81
2023/04/21 04:43:11;;;;;;;25.88;20.15;;;7.60;99.90;;;;;;6123254;23;20029;-80
2023/04/21 04:45:37;;;;;;;32.70;21.88;;;7.70;99.90;;;;;;6123186;23;20014;-81
2023/04/21 04:48:03;;;;;;;27.73;20.35;;;7.70;99.90;;;;;;6124811;23;20414;-80
2023/04/21 04:50:29;;;;;;;27.88;20.40;;;7.70;99.90;;;;;;6123382;23;20014;-80
2023/04/21 04:52:56;;;;;;;29.83;20.75;;;8.10;99.90;;;;;;6125167;23;20010;-81
2023/04/21 04:55:22;;;;;;;28.27;19.98;;;7.90;99.90;;;;;;6122560;23;20065;-82
2023/04/21 04:57:48;;;;;;;26.13;20.55;;;7.80;99.90;;;;;;6124903;23;20022;-83
2023/04/21 05:00:13;;;;;;;27.55;21.23;;;7.90;99.90;;;;;;6124789;23;20065;-83
2023/04/21 05:02:39;;;;;;;27.58;21.15;;;7.90;99.90;;;;;;6122798;23;20018;-83
2023/04/21 05:05:06;;;;;;;25.83;21.30;;;8.00;99.90;;;;;;6123046;23;20009;-83
2023/04/21 05:07:32;;;;;;;26.73;21.45;;;8.00;99.90;;;;;;6124820;23;20013;-83
2023/04/21 05:09:58;;;;;;;30.13;21.67;;;8.50;99.90;;;;;;6122200;23;20010;-83
2023/04/21 05:12:23;;;;;;;25.83;21.33;;;8.20;99.90;;;;;;6124592;23;20014;-83
2023/04/21 05:14:49;;;;;;;28.98;21.35;;;8.00;99.90;;;;;;6124680;23;20452;-83
2023/04/21 05:17:14;;;;;;;37.50;21.25;;;8.10;99.90;;;;;;6122312;23;20440;-83
2023/04/21 05:19:40;;;;;;;31.30;22.30;;;8.10;99.90;;;;;;6124480;23;20014;-83
2023/04/21 05:22:06;;;;;;;25.30;21.98;;;8.10;99.90;;;;;;6122145;23;20014;-82
2023/04/21 05:24:34;;;;;;;31.88;22.05;;;8.60;99.90;;;;;;6124383;23;20010;-83
2023/04/21 05:27:01;;;;;;;26.23;22.13;;;8.20;99.90;;;;;;6124375;23;20048;-81
2023/04/21 05:29:27;;;;;;;29.85;22.27;;;8.30;99.90;;;;;;6122568;23;20429;-80
2023/04/21 05:31:53;;;;;;;27.52;21.50;;;8.30;99.90;;;;;;6124641;23;20018;-83
2023/04/21 05:34:18;;;;;;;27.20;21.60;;;8.40;99.90;;;;;;6122785;23;20010;-84
2023/04/21 05:36:44;;;;;;;29.00;21.92;;;8.50;99.90;;;;;;6123721;23;20361;-83
2023/04/21 05:39:10;;;;;;;29.65;21.65;;;8.50;99.90;;;;;;6124471;23;20014;-82
2023/04/21 05:41:35;;;;;;;30.45;22.02;;;8.60;99.90;;;;;;6124421;23;20022;-82
2023/04/21 05:44:01;;;;;;;29.25;19.13;;;8.90;99.90;;;;;;6124409;23;20061;-80
2023/04/21 05:46:29;;;;;;;29.30;18.63;;;9.60;99.90;;;;;;6122379;23;20017;-80
2023/04/21 05:48:54;;;;;;;23.45;16.95;;;9.30;99.90;;;;;;6124395;23;20014;-80
2023/04/21 05:51:20;;;;;;;23.30;17.30;;;9.80;99.90;;;;;;6121806;23;20081;-80
2023/04/21 05:53:45;;;;;;;24.45;16.70;;;10.70;99.90;;;;;;6124395;23;20009;-80
2023/04/21 05:56:12;;;;;;;19.58;15.23;;;11.40;99.90;;;;;;6143591;23;20025;-80
2023/04/21 05:58:38;;;;;;;22.92;14.60;;;12.10;99.90;;;;;;6153528;23;20021;-82
2023/04/21 06:01:05;;;;;;;21.70;14.00;;;12.50;99.90;;;;;;6127314;23;20333;-81
2023/04/21 06:03:32;;;;;;;19.63;12.73;;;13.00;99.90;;;;;;6126880;23;20018;-81
2023/04/21 06:05:59;;;;;;;19.52;12.27;;;13.60;99.90;;;;;;6101880;23;20023;-81
2023/04/21 06:08:24;;;;;;;17.83;11.65;;;13.90;99.90;;;;;;6153408;23;20092;-81
2023/04/21 06:10:50;;;;;;;19.98;11.13;;;13.70;99.90;;;;;;6126839;23;20045;-81
2023/04/21 06:13:16;;;;;;;20.00;11.88;;;13.90;99.90;;;;;;6153365;23;20013;-83
2023/04/21 06:15:41;;;;;;;22.50;12.18;;;13.60;99.90;;;;;;6126549;23;20017;-84
2023/04/21 06:18:07;;;;;;;16.70;11.07;;;14.30;99.90;;;;;;6126819;23;20017;-84
2023/04/21 06:20:32;;;;;;;20.52;10.88;;;14.70;99.90;;;;;;6125908;23;20080;-84
2023/04/21 06:22:58;;;;;;;17.00;10.93;;;14.20;99.90;;;;;;6153136;23;20018;-83
2023/04/21 06:25:24;;;;;;;19.20;10.23;;;14.60;99.90;;;;;;6102414;23;20437;-83
2023/04/21 06:27:49;;;;;;;19.45;11.50;;;15.40;99.90;;;;;;6152929;23;20060;-83
2023/04/21 06:30:16;;;;;;;15.75;10.60;;;15.80;99.90;;;;;;6152425;23;20020;-83
2023/04/21 06:32:42;;;;;;;17.08;10.80;;;15.70;99.90;;;;;;6126461;23;20013;-84
2023/04/21 06:35:08;;;;;;;16.63;10.65;;;15.40;99.90;;;;;;6125920;23;20185;-83
2023/04/21 06:37:34;;;;;;;19.40;11.65;;;15.40;99.90;;;;;;6153030;23;20010;-84
2023/04/21 06:39:59;;;;;;;16.77;10.18;;;15.70;99.90;;;;;;6153082;23;20177;-83
2023/04/21 06:42:25;;;;;;;17.40;10.48;;;16.30;99.90;;;;;;6126572;23;20365;-83
2023/04/21 06:44:50;;;;;;;22.35;10.77;;;16.30;99.90;;;;;;6126466;23;20071;-83
2023/04/21 06:47:16;;;;;;;16.98;10.70;;;16.40;99.90;;;;;;6126762;23;20006;-83
2023/04/21 06:49:42;;;;;;;15.75;10.15;;;17.00;99.90;;;;;;6152061;23;20036;-84
2023/04/21 06:52:07;;;;;;;15.25;9.30;;;17.20;99.90;;;;;;6126149;23;20018;-83
2023/04/21 06:54:33;;;;;;;19.50;9.80;;;16.80;99.90;;;;;;6126563;23;20025;-83
2023/04/21 06:56:59;;;;;;;14.90;9.57;;;16.20;99.90;;;;;;6126649;23;20487;-84
2023/04/21 06:59:24;;;;;;;17.98;10.50;;;15.40;99.90;;;;;;6126501;23;20013;-83
2023/04/21 07:01:51;;;;;;;19.85;10.27;;;14.30;99.90;;;;;;6126209;23;20021;-82
2023/04/21 07:04:17;;;;;;;16.92;10.10;;;13.90;99.90;;;;;;6152375;23;20080;-83
2023/04/21 07:06:43;;;;;;;18.60;10.93;;;13.60;99.90;;;;;;6126290;23;20397;-83
2023/04/21 07:09:09;;;;;;;22.77;10.98;;;13.40;99.90;;;;;;6152911;23;20108;-82
2023/04/21 07:11:34;;;;;;;21.70;10.32;;;13.20;99.90;;;;;;6126770;23;20025;-84
2023/04/21 07:14:01;;;;;;;14.50;10.55;;;13.10;99.90;;;;;;6126462;23;20473;-83
2023/04/21 07:16:28;;;;;;;23.65;11.40;;;12.90;99.90;;;;;;6126428;23;20021;-83
2023/04/21 07:18:53;;;;;;;17.63;11.05;;;12.70;99.90;;;;;;6125699;23;20394;-83
2023/04/21 07:21:19;;;;;;;19.90;11.23;;;12.90;99.90;;;;;;6125889;23;20045;-83
2023/04/21 07:23:44;;;;;;;19.67;11.45;;;12.80;99.90;;;;;;6152424;23;20009;-83
2023/04/21 07:26:10;;;;;;;18.67;10.82;;;12.90;99.90;;;;;;6126314;23;20013;-84
2023/04/21 07:28:37;;;;;;;16.60;10.07;;;13.00;99.90;;;;;;6152598;23;20010;-84
2023/04/21 07:31:03;;;;;;;19.42;11.25;;;12.90;99.90;;;;;;6152683;23;20017;-83
2023/04/21 07:33:29;;;;;;;19.85;10.68;;;12.90;99.90;;;;;;6100916;23;20016;-83
2023/04/21 07:35:55;;;;;;;14.82;10.48;;;13.10;99.90;;;;;;6152519;23;20104;-83
2023/04/21 07:38:20;;;;;;;18.30;10.73;;;13.50;99.90;;;;;;6101735;23;20045;-83
2023/04/21 07:40:46;;;;;;;20.45;10.23;;;13.40;99.90;;;;;;6153309;23;20009;-83
2023/04/21 07:43:12;;;;;;;15.98;9.63;;;13.20;99.90;;;;;;6128083;23;20472;-84
2023/04/21 07:45:37;;;;;;;21.23;10.68;;;13.30;99.90;;;;;;6154302;23;20463;-85
2023/04/21 07:48:04;;;;;;;16.00;10.68;;;13.30;99.90;;;;;;6153990;23;20020;-84
2023/04/21 07:50:30;;;;;;;13.80;10.00;;;13.30;99.90;;;;;;6127973;23;20025;-84
2023/04/21 07:52:56;;;;;;;21.23;10.48;;;13.50;99.90;;;;;;6128134;23;20017;-83
2023/04/21 07:55:22;;;;;;;15.05;9.70;;;13.50;99.90;;;;;;6123268;23;20108;-84
2023/04/21 07:57:47;;;;;;;17.38;10.13;;;13.60;99.90;;;;;;6124930;23;20018;-85
2023/04/21 08:00:14;;;;;;;16.42;10.45;;;13.90;99.90;;;;;;6123106;23;20022;-83
2023/04/21 08:02:40;;;;;;;24.38;10.50;;;13.50;99.90;;;;;;6124366;23;20022;-84
2023/04/21 08:05:06;;;;;;;17.42;10.18;;;13.60;99.90;;;;;;6122981;23;20021;-84
2023/04/21 08:07:32;;;;;;;23.08;10.38;;;13.60;99.90;;;;;;6123157;23;20046;-84
2023/04/21 08:09:58;;;;;;;17.70;10.50;;;14.20;99.90;;;;;;6123260;23;20049;-83
2023/04/21 08:12:25;;;;;;;15.35;10.00;;;15.40;99.90;;;;;;6123471;23;20065;-84
2023/04/21 08:14:50;;;;;;;19.60;9.85;;;16.10;99.90;;;;;;6124869;23;20155;-83
2023/04/21 08:17:16;;;;;;;19.30;9.98;;;16.90;99.90;;;;;;6122380;23;20093;-84
2023/04/21 08:19:42;;;;;;;20.65;9.68;;;17.50;99.90;;;;;;6122859;23;20014;-83
2023/04/21 08:22:08;;;;;;;19.13;9.73;;;17.70;99.90;;;;;;6122918;23;20472;-82
2023/04/21 08:24:33;;;;;;;16.05;9.93;;;17.60;99.90;;;;;;6124632;23;20451;-84
2023/04/21 08:27:01;;;;;;;14.18;9.70;;;17.70;99.90;;;;;;6122830;23;20166;-83
2023/04/21 08:29:27;;;;;;;19.67;9.95;;;17.70;99.90;;;;;;6098580;23;20048;-84
2023/04/21 08:31:52;;;;;;;19.45;8.95;;;17.60;99.90;;;;;;6123858;23;20345;-83
2023/04/21 08:34:18;;;;;;;16.52;10.18;;;17.60;99.90;;;;;;6098298;23;20025;-84
2023/04/21 08:36:46;;;;;;;19.75;9.57;;;17.60;99.90;;;;;;6124788;23;20013;-84
2023/04/21 08:39:12;;;;;;;18.45;9.75;;;17.60;99.90;;;;;;6124517;23;20494;-83
2023/04/21 08:41:41;;;;;;;19.65;9.60;;;17.60;99.90;;;;;;6122539;23;20021;-84
2023/04/21 08:44:10;;;;;;;16.83;9.15;;;18.00;99.90;;;;;;6124634;23;20010;-83
2023/04/21 08:46:36;;;;;;;15.20;9.60;;;18.20;99.90;;;;;;6122039;23;20041;-83
2023/04/21 08:49:02;;;;;;;16.65;9.30;;;17.90;99.90;;;;;;6122616;23;20010;-84
2023/04/21 08:51:29;;;;;;;14.05;9.48;;;17.90;99.90;;;;;;6097745;23;20020;-83
2023/04/21 08:53:55;;;;;;;18.38;10.13;;;17.90;99.90;;;;;;6122894;23;20404;-83
2023/04/21 08:56:21;;;;;;;19.50;9.90;;;17.70;99.90;;;;;;6145872;23;20018;-84
2023/04/21 08:58:46;;;;;;;22.65;9.63;;;17.30;99.90;;;;;;6127710;23;20014;-82
2023/04/21 09:01:12;;;;;;;19.63;9.85;;;16.90;99.90;;;;;;6153383;23;20111;-82
2023/04/21 09:03:38;;;;;;;15.90;8.25;;;16.70;99.90;;;;;;6127213;23;20466;-81
2023/04/21 09:06:06;;;;;;;15.30;9.85;;;16.60;99.90;;;;;;6127331;23;20048;-81
2023/04/21 09:08:34;;;;;;;16.05;9.35;;;16.30;99.90;;;;;;6127459;23;20009;-81
2023/04/21 09:11:00;;;;;;;17.95;9.18;;;16.10;99.90;;;;;;6127524;23;20100;-81
2023/04/21 09:13:31;;;;;;;19.90;9.95;;;16.10;99.90;;;;;;6127396;23;20013;-81
2023/04/21 09:15:57;;;;;;;17.02;9.95;;;16.20;99.90;;;;;;6126526;23;20433;-83
2023/04/21 09:18:25;;;;;;;17.38;9.77;;;16.20;99.90;;;;;;6127170;23;20018;-83
2023/04/21 09:21:07;;;;;;;16.92;10.02;;;16.00;99.90;;;;;;6102577;23;20020;-83
2023/04/21 09:23:48;;;;;;;16.25;8.77;;;16.00;99.90;;;;;;6154129;23;20093;-83
2023/04/21 09:26:15;;;;;;;19.58;10.10;;;16.30;99.90;;;;;;6154564;23;20056;-82
2023/04/21 09:28:45;;;;;;;20.92;10.05;;;16.70;99.90;;;;;;6127386;23;20013;-83
2023/04/21 09:31:20;;;;;;;22.08;9.95;;;16.90;99.90;;;;;;6128204;23;20024;-81
2023/04/21 09:33:53;;;;;;;17.48;9.80;;;17.40;99.90;;;;;;6154460;23;20017;-81
2023/04/21 09:36:23;;;;;;;17.85;9.35;;;17.90;99.90;;;;;;6103244;23;20061;-82
2023/04/21 09:38:55;;;;;;;17.50;9.50;;;18.00;99.90;;;;;;6154269;23;20014;-82
2023/04/21 09:41:20;;;;;;;16.45;9.15;;;18.10;99.90;;;;;;6153850;23;20021;-82
2023/04/21 09:43:47;;;;;;;17.38;9.20;;;18.10;99.90;;;;;;6153090;23;20100;-82
2023/04/21 09:46:16;;;;;;;20.17;9.65;;;17.90;99.90;;;;;;6127518;23;20096;-83
2023/04/21 09:48:44;;;;;;;23.45;9.75;;;17.50;99.90;;;;;;6127144;23;20025;-83
2023/04/21 09:51:11;;;;;;;20.90;9.02;;;17.30;99.90;;;;;;6127464;23;20010;-82
2023/04/21 09:53:39;;;;;;;16.85;9.13;;;17.10;99.90;;;;;;6153607;23;20021;-83
2023/04/21 09:56:12;;;;;;;17.70;9.30;;;17.10;99.90;;;;;;6122388;23;20025;-82
2023/04/21 09:58:40;;;;;;;;;;;17.00;99.90;;;;;;6122325;23;20093;-82
2023/04/21 10:01:06;;;;;;;15.88;9.55;;;17.00;99.90;;;;;;6097575;23;20351;-82
2023/04/21 10:03:34;;;;;;;16.20;8.77;;;17.10;99.90;;;;;;6124134;23;20077;-83
2023/04/21 10:06:00;;;;;;;19.73;9.85;;;17.20;99.90;;;;;;6124352;23;20064;-82
2023/04/21 10:08:26;;;;;;;18.45;9.57;;;17.10;99.90;;;;;;6122359;23;20010;-83
2023/04/21 10:10:53;;;;;;;23.05;9.82;;;17.30;99.90;;;;;;6098039;23;20015;-82
2023/04/21 10:13:19;;;;;;;15.15;9.25;;;17.50;99.90;;;;;;6121705;23;20010;-82
2023/04/21 10:15:45;;;;;;;15.55;8.60;;;17.50;99.90;;;;;;6124199;23;20017;-82
2023/04/21 10:18:22;;;;;;;16.70;9.45;;;17.60;99.90;;;;;;6122165;23;20349;-83
2023/04/21 10:20:52;;;;;;;18.15;9.88;;;17.70;99.90;;;;;;6123788;23;20017;-83
2023/04/21 10:23:35;;;;;;;19.70;9.18;;;17.70;99.90;;;;;;6122259;23;20046;-83
2023/04/21 10:26:20;;;;;;;15.70;8.90;;;18.00;99.90;;;;;;6122810;23;20010;-83
2023/04/21 10:28:58;;;;;;;19.45;10.07;;;18.00;99.90;;;;;;6123826;23;20032;-83
2023/04/21 10:31:25;;;;;;;15.57;8.75;;;18.00;99.90;;;;;;6124004;23;20154;-82
2023/04/21 10:34:07;;;;;;;17.05;9.25;;;18.30;99.90;;;;;;6122189;23;20465;-82
2023/04/21 10:36:52;;;;;;;13.93;9.32;;;18.30;99.90;;;;;;6122290;23;20453;-83
2023/04/21 10:39:30;;;;;;;15.95;9.00;;;18.40;99.90;;;;;;6103394;23;20018;-82
2023/04/21 10:42:21;;;;;;;16.98;8.48;;;18.50;99.90;;;;;;6123341;23;20326;-82
2023/04/21 10:44:56;;;;;;;17.30;8.52;;;18.50;99.90;;;;;;6122075;23;20022;-82
2023/04/21 10:47:30;;;;;;;19.08;8.75;;;18.60;99.90;;;;;;6124150;23;20101;-82
2023/04/21 10:49:57;;;;;;;16.63;8.48;;;18.80;99.90;;;;;;6122044;23;20061;-82
2023/04/21 10:52:32;;;;;;;19.92;8.55;;;19.10;99.90;;;;;;6122028;23;20388;-82
2023/04/21 10:54:58;;;;;;;15.30;7.70;;;19.20;99.90;;;;;;6097530;23;20025;-82
2023/04/21 10:57:24;;;;;;;14.73;7.70;;;19.40;99.90;;;;;;6121321;23;20021;-81
2023/04/21 10:59:49;;;;;;;14.15;8.43;;;19.40;99.90;;;;;;6123594;23;20021;-82
2023/04/21 11:02:17;;;;;;;19.52;8.02;;;19.30;99.90;;;;;;6123809;23;20018;-82
2023/04/21 11:04:49;;;;;;;15.98;7.93;;;19.30;99.20;;;;;;6122246;23;20014;-82
2023/04/21 11:07:20;;;;;;;15.13;8.07;;;19.40;99.70;;;;;;6122109;23;20088;-83
2023/04/21 11:09:47;;;;;;;16.27;7.68;;;19.40;98.20;;;;;;6123931;23;20013;-82
2023/04/21 11:12:16;;;;;;;18.85;8.25;;;19.30;98.70;;;;;;6121334;23;20564;-83
2023/04/21 11:14:45;;;;;;;14.45;7.65;;;19.20;99.30;;;;;;6121568;23;20465;-84
2023/04/21 11:17:15;;;;;;;14.05;7.40;;;19.40;99.00;;;;;;6121754;23;20028;-82
2023/04/21 11:19:45;;;;;;;16.20;7.20;;;19.50;99.80;;;;;;6123549;23;20014;-82
2023/04/21 11:22:11;;;;;;;16.08;6.40;;;19.60;98.90;;;;;;6097393;23;20021;-83
2023/04/21 11:24:37;;;;;;;16.83;5.60;;;19.70;96.80;;;;;;6122812;23;20081;-82
2023/04/21 11:27:06;;;;;;;12.52;5.22;;;19.80;95.90;;;;;;6123610;23;20021;-83
2023/04/21 11:29:32;;;;;;;11.90;5.82;;;20.00;96.10;;;;;;6123873;23;20014;-82
2023/04/21 11:31:59;;;;;;;14.02;5.30;;;20.10;97.00;;;;;;6122046;23;20018;-83
2023/04/21 11:34:25;;;;;;;14.95;5.30;;;20.30;95.90;;;;;;6123772;23;20079;-82
2023/04/21 11:36:52;;;;;;;16.17;5.00;;;20.30;95.70;;;;;;6123991;23;20041;-83
2023/04/21 11:39:21;;;;;;;13.10;4.85;;;20.60;95.20;;;;;;6096860;23;20453;-83
2023/04/21 11:41:49;;;;;;;18.35;5.38;;;20.50;93.00;;;;;;6122016;23;20022;-81
2023/04/21 11:44:37;;;;;;;21.45;5.15;;;20.50;93.10;;;;;;6123991;23;20069;-82
2023/04/21 11:47:32;;;;;;;10.88;4.57;;;20.50;92.90;;;;;;6124040;23;20098;-83
2023/04/21 11:50:00;;;;;;;21.23;5.00;;;20.50;93.50;;;;;;6092852;23;20014;-84
2023/04/21 11:52:32;;;;;;;12.07;4.70;;;20.50;92.50;;;;;;6122535;23;20041;-82
2023/04/21 11:55:01;;;;;;;15.80;5.10;;;20.30;92.80;;;;;;6103604;23;20021;-82
2023/04/21 11:57:29;;;;;;;11.50;4.65;;;20.10;93.00;;;;;;6156375;23;20021;-84
2023/04/21 12:00:01;;;;;;;11.27;4.38;;;20.10;92.80;;;;;;6104740;23;20095;-83
2023/04/21 12:02:30;;;;;;;13.65;4.57;;;19.90;92.10;;;;;;6154090;23;20017;-83
2023/04/21 12:05:00;;;;;;;15.88;4.50;;;20.00;91.80;;;;;;6131015;23;20037;-82
2023/04/21 12:07:29;;;;;;;14.07;4.03;;;20.20;92.90;;;;;;6160487;23;20014;-83
2023/04/21 12:09:54;;;;;;;12.75;4.50;;;20.10;92.50;;;;;;6159494;23;20017;-83
2023/04/21 12:12:23;;;;;;;13.05;4.90;;;20.30;93.50;;;;;;6152997;23;20097;-83
2023/04/21 12:14:50;;;;;;;23.02;5.47;;;20.50;92.40;;;;;;6102225;23;20021;-82
2023/04/21 12:17:16;;;;;;;14.95;4.70;;;20.60;91.90;;;;;;6126509;23;20445;-83
2023/04/21 12:19:42;;;;;;;17.75;5.20;;;20.50;91.20;;;;;;6102357;23;20060;-82
2023/04/21 12:22:08;;;;;;;11.65;4.50;;;20.70;91.10;;;;;;6102228;23;20025;-82
2023/04/21 12:24:35;;;;;;;12.25;4.53;;;20.50;90.80;;;;;;6126444;23;20005;-82
2023/04/21 12:27:01;;;;;;;14.43;4.63;;;20.40;91.20;;;;;;6128195;23;20020;-82
2023/04/21 12:29:27;;;;;;;15.57;4.65;;;20.40;91.20;;;;;;6128405;23;20021;-83
2023/04/21 12:31:52;;;;;;;12.75;4.55;;;20.50;91.80;;;;;;6103946;23;20016;-82
2023/04/21 12:34:18;;;;;;;14.13;4.40;;;20.40;91.20;;;;;;6154749;23;20010;-82